Time;durP1;ratioP1;P1;durP2;ratioP2;P2;SDS_P1;SDS_P2;PMS_P1;PMS_P2;Temp;Humidity;BMP_temperature;BMP_pressure;BME280_temperature;BME280_humidity;BME280_pressure;Samples;Min_cycle;Max_cycle;Signal;HPM_P1;HPM_P2
2024/02/25 00:02:27;;;;;;;8.73;5.95;;;;;;;;;;5088920;28;20039;-63
2024/02/25 00:04:53;;;;;;;9.20;5.63;;;;;;;;;;5088141;28;20062;-62
2024/02/25 00:07:19;;;;;;;9.30;6.13;;;;;;;;;;5087767;28;20039;-63
2024/02/25 00:09:45;;;;;;;12.38;6.07;;;;;;;;;;5101604;27;20016;-66
2024/02/25 00:12:12;;;;;;;8.20;4.95;;;;;;;;;;5103469;27;20035;-63
2024/02/25 00:14:38;;;;;;;6.88;4.82;;;;;;;;;;5109890;27;20024;-63
2024/02/25 00:17:04;;;;;;;6.95;4.50;;;;;;;;;;5097343;27;20117;-63
2024/02/25 00:19:30;;;;;;;7.53;4.93;;;;;;;;;;5097453;27;20081;-63
2024/02/25 00:21:58;;;;;;;5.40;4.82;;;;;;;;;;5091479;28;20027;-63
2024/02/25 00:24:24;;;;;;;4.97;3.63;;;;;;;;;;5105667;27;20164;-62
2024/02/25 00:26:50;;;;;;;4.35;3.78;;;;;;;;;;5103255;27;20097;-62
2024/02/25 00:29:16;;;;;;;10.50;5.65;;;;;;;;;;5106478;27;20157;-66
2024/02/25 00:31:43;;;;;;;5.90;4.63;;;;;;;;;;5104796;28;20277;-62
2024/02/25 00:34:09;;;;;;;8.02;5.30;;;;;;;;;;5091783;27;20034;-62
2024/02/25 00:36:35;;;;;;;11.52;5.05;;;;;;;;;;5099205;27;20417;-63
2024/02/25 00:39:03;;;;;;;9.27;6.07;;;;;;;;;;5102412;27;20035;-62
2024/02/25 00:41:29;;;;;;;11.15;5.93;;;;;;;;;;5099978;28;20541;-62
2024/02/25 00:43:55;;;;;;;5.65;5.00;;;;;;;;;;5104796;28;20039;-63
2024/02/25 00:46:21;;;;;;;16.80;5.95;;;;;;;;;;5106163;27;20122;-61
2024/02/25 00:48:48;;;;;;;8.15;6.20;;;;;;;;;;5099046;28;20032;-62
2024/02/25 00:51:14;;;;;;;9.23;6.60;;;;;;;;;;5100032;27;20035;-62
2024/02/25 00:53:40;;;;;;;13.95;6.45;;;;;;;;;;5106455;27;20031;-62
2024/02/25 00:56:06;;;;;;;16.10;7.10;;;;;;;;;;5103667;27;21160;-62
2024/02/25 00:58:33;;;;;;;12.65;6.35;;;;;;;;;;5104849;27;20391;-62
2024/02/25 01:00:59;;;;;;;14.45;8.45;;;;;;;;;;5107005;27;20026;-63
2024/02/25 01:03:26;;;;;;;13.25;7.32;;;;;;;;;;5104600;28;20054;-62
2024/02/25 01:05:52;;;;;;;7.43;5.65;;;;;;;;;;5097181;28;20038;-63
2024/02/25 01:08:18;;;;;;;8.48;5.13;;;;;;;;;;5097020;27;20038;-63
2024/02/25 01:10:44;;;;;;;12.15;6.32;;;;;;;;;;5098592;27;20412;-62
2024/02/25 01:13:10;;;;;;;5.50;4.22;;;;;;;;;;5099225;28;20020;-62
2024/02/25 01:15:36;;;;;;;9.55;5.65;;;;;;;;;;5101671;28;20032;-62
2024/02/25 01:18:03;;;;;;;7.82;5.50;;;;;;;;;;5077268;28;20100;-62
2024/02/25 01:20:29;;;;;;;10.30;6.10;;;;;;;;;;5099395;28;20011;-62
2024/02/25 01:22:55;;;;;;;8.77;6.40;;;;;;;;;;5098512;28;20063;-63
2024/02/25 01:25:21;;;;;;;12.57;7.82;;;;;;;;;;5104240;27;20026;-62
2024/02/25 01:27:48;;;;;;;10.02;6.78;;;;;;;;;;5099162;27;20023;-62
2024/02/25 01:30:14;;;;;;;20.60;6.43;;;;;;;;;;5079730;27;20367;-62
2024/02/25 01:32:41;;;;;;;12.52;7.15;;;;;;;;;;5088449;28;20020;-62
2024/02/25 01:35:07;;;;;;;10.32;6.95;;;;;;;;;;5091798;27;20138;-62
2024/02/25 01:37:33;;;;;;;10.65;8.27;;;;;;;;;;5083873;28;20084;-63
2024/02/25 01:40:00;;;;;;;15.25;7.82;;;;;;;;;;5083900;27;21289;-62
2024/02/25 01:42:26;;;;;;;12.10;7.70;;;;;;;;;;5098378;28;20019;-62
2024/02/25 01:44:58;;;;;;;10.95;8.27;;;;;;;;;;5084537;28;20114;-62
2024/02/25 01:47:24;;;;;;;9.50;7.47;;;;;;;;;;5094978;28;20041;-62
2024/02/25 01:49:50;;;;;;;13.55;9.35;;;;;;;;;;5109025;27;20023;-63
2024/02/25 01:52:18;;;;;;;14.30;8.20;;;;;;;;;;5091800;28;20027;-63
2024/02/25 01:54:45;;;;;;;13.52;6.20;;;;;;;;;;5097062;28;20491;-62
2024/02/25 01:57:12;;;;;;;12.00;7.95;;;;;;;;;;5102037;28;20484;-62
2024/02/25 01:59:38;;;;;;;11.68;6.68;;;;;;;;;;5097735;27;20107;-62
2024/02/25 02:02:04;;;;;;;11.93;6.97;;;;;;;;;;5103702;27;20043;-62
2024/02/25 02:04:32;;;;;;;12.98;7.65;;;;;;;;;;5100594;28;20545;-62
2024/02/25 02:07:02;;;;;;;11.48;7.72;;;;;;;;;;5096348;28;20434;-62
2024/02/25 02:09:30;;;;;;;12.00;7.30;;;;;;;;;;5084785;28;20035;-62
2024/02/25 02:11:59;;;;;;;14.25;6.47;;;;;;;;;;5103408;28;20155;-63
2024/02/25 02:14:26;;;;;;;10.70;6.65;;;;;;;;;;5101346;28;20075;-65
2024/02/25 02:16:52;;;;;;;6.57;5.70;;;;;;;;;;5097188;28;20024;-62
2024/02/25 02:19:19;;;;;;;11.57;6.38;;;;;;;;;;5103880;27;20082;-62
2024/02/25 02:21:45;;;;;;;9.75;7.03;;;;;;;;;;5094342;28;20092;-65
2024/02/25 02:24:14;;;;;;;10.70;5.40;;;;;;;;;;5098645;28;20040;-62
2024/02/25 02:26:41;;;;;;;11.15;5.15;;;;;;;;;;5095446;28;20035;-65
2024/02/25 02:29:07;;;;;;;7.72;5.93;;;;;;;;;;5099369;28;20034;-63
2024/02/25 02:31:33;;;;;;;6.60;4.57;;;;;;;;;;5079900;28;20484;-63
2024/02/25 02:34:00;;;;;;;7.03;4.72;;;;;;;;;;5105182;28;20039;-62
2024/02/25 02:36:26;;;;;;;11.27;5.35;;;;;;;;;;5099017;28;20101;-62
2024/02/25 02:38:53;;;;;;;5.68;4.60;;;;;;;;;;5093266;28;20110;-63
2024/02/25 02:41:23;;;;;;;8.52;5.18;;;;;;;;;;5099422;28;20480;-66
2024/02/25 02:43:49;;;;;;;6.05;4.68;;;;;;;;;;5098717;28;20028;-62
2024/02/25 02:46:15;;;;;;;6.13;4.82;;;;;;;;;;5097913;28;20028;-62
2024/02/25 02:48:41;;;;;;;9.43;4.15;;;;;;;;;;5101263;28;20035;-62
2024/02/25 02:51:09;;;;;;;5.05;3.95;;;;;;;;;;5101001;28;20111;-62
2024/02/25 02:53:35;;;;;;;5.22;4.45;;;;;;;;;;5101541;28;20050;-63
2024/02/25 02:56:01;;;;;;;9.82;3.90;;;;;;;;;;5102002;28;20576;-63
2024/02/25 02:58:27;;;;;;;5.32;3.85;;;;;;;;;;5096604;28;20107;-62
2024/02/25 03:00:53;;;;;;;6.10;3.47;;;;;;;;;;5099125;28;20483;-64
2024/02/25 03:03:20;;;;;;;3.45;3.13;;;;;;;;;;5114714;28;20056;-62
2024/02/25 03:05:46;;;;;;;4.28;2.83;;;;;;;;;;5084728;28;20027;-62
2024/02/25 03:08:12;;;;;;;6.22;3.63;;;;;;;;;;5105251;28;20115;-62
2024/02/25 03:10:38;;;;;;;5.95;3.90;;;;;;;;;;5092755;28;20175;-62
2024/02/25 03:13:04;;;;;;;4.47;2.75;;;;;;;;;;5093454;28;20047;-64
2024/02/25 03:15:30;;;;;;;4.85;3.17;;;;;;;;;;5097275;28;20030;-61
2024/02/25 03:17:57;;;;;;;7.25;3.33;;;;;;;;;;5097460;28;20023;-62
2024/02/25 03:20:23;;;;;;;3.40;2.53;;;;;;;;;;5101838;28;20042;-62
2024/02/25 03:22:49;;;;;;;3.47;3.15;;;;;;;;;;5097621;28;20139;-62
2024/02/25 03:25:15;;;;;;;5.13;3.92;;;;;;;;;;5105741;28;20115;-62
2024/02/25 03:27:41;;;;;;;6.15;2.90;;;;;;;;;;5077809;28;20035;-62
2024/02/25 03:30:10;;;;;;;3.45;2.85;;;;;;;;;;5069783;28;20027;-62
2024/02/25 03:32:36;;;;;;;3.95;3.10;;;;;;;;;;5077837;28;20020;-61
2024/02/25 03:35:02;;;;;;;2.90;2.60;;;;;;;;;;5105935;28;20350;-62
2024/02/25 03:37:29;;;;;;;3.28;2.97;;;;;;;;;;5073346;28;20044;-62
2024/02/25 03:39:55;;;;;;;5.65;3.33;;;;;;;;;;5100073;28;20032;-62
2024/02/25 03:42:21;;;;;;;5.07;2.42;;;;;;;;;;5092932;28;20118;-64
2024/02/25 03:44:48;;;;;;;3.40;2.25;;;;;;;;;;5097211;28;20103;-64
2024/02/25 03:47:14;;;;;;;5.82;2.38;;;;;;;;;;5097971;28;20044;-62
2024/02/25 03:49:41;;;;;;;4.15;3.15;;;;;;;;;;5093918;28;20100;-62
2024/02/25 03:52:07;;;;;;;2.78;2.58;;;;;;;;;;5103683;27;20028;-62
2024/02/25 03:54:33;;;;;;;4.45;2.63;;;;;;;;;;5101491;27;20014;-62
2024/02/25 03:56:59;;;;;;;4.15;2.58;;;;;;;;;;5099357;27;20504;-63
2024/02/25 03:59:25;;;;;;;2.88;2.25;;;;;;;;;;5107824;27;20114;-62
2024/02/25 04:01:51;;;;;;;5.43;3.13;;;;;;;;;;5078492;28;20031;-62
2024/02/25 04:04:18;;;;;;;7.35;2.70;;;;;;;;;;5093817;28;20147;-62
2024/02/25 04:06:44;;;;;;;3.00;2.60;;;;;;;;;;5097968;27;20036;-62
2024/02/25 04:09:10;;;;;;;6.05;3.03;;;;;;;;;;5092352;27;20141;-62
2024/02/25 04:11:36;;;;;;;6.43;3.65;;;;;;;;;;5090948;28;20027;-62
2024/02/25 04:14:02;;;;;;;4.00;3.58;;;;;;;;;;5106587;27;20042;-62
2024/02/25 04:16:28;;;;;;;10.00;3.35;;;;;;;;;;5092564;27;20085;-63
2024/02/25 04:18:55;;;;;;;5.32;3.22;;;;;;;;;;5087358;28;20111;-63
2024/02/25 04:21:21;;;;;;;3.05;2.75;;;;;;;;;;5103623;27;20034;-62
2024/02/25 04:23:48;;;;;;;2.78;2.17;;;;;;;;;;5107383;27;20024;-62
2024/02/25 04:26:14;;;;;;;2.92;2.45;;;;;;;;;;5102373;27;20035;-63
2024/02/25 04:28:40;;;;;;;5.38;3.70;;;;;;;;;;5099848;27;20018;-63
2024/02/25 04:31:07;;;;;;;2.40;2.20;;;;;;;;;;5086484;28;20392;-62
2024/02/25 04:33:33;;;;;;;4.57;2.90;;;;;;;;;;5087468;27;20431;-63
2024/02/25 04:35:59;;;;;;;3.83;2.25;;;;;;;;;;5101839;27;20164;-62
2024/02/25 04:38:25;;;;;;;2.97;2.25;;;;;;;;;;5086222;27;20020;-62
2024/02/25 04:40:53;;;;;;;5.90;3.17;;;;;;;;;;5104667;27;20026;-63
2024/02/25 04:43:19;;;;;;;4.05;2.75;;;;;;;;;;5111340;27;20080;-63
2024/02/25 04:45:45;;;;;;;2.72;2.30;;;;;;;;;;5102096;28;20469;-63
2024/02/25 04:48:12;;;;;;;1.95;1.85;;;;;;;;;;5097248;27;20027;-62
2024/02/25 04:50:38;;;;;;;2.15;1.90;;;;;;;;;;5099920;27;20095;-62
2024/02/25 04:53:04;;;;;;;2.35;2.15;;;;;;;;;;5105812;27;20043;-62
2024/02/25 04:55:30;;;;;;;3.55;2.63;;;;;;;;;;5097871;27;20035;-63
2024/02/25 04:57:56;;;;;;;3.63;2.55;;;;;;;;;;5100072;27;20451;-62
2024/02/25 05:00:23;;;;;;;2.63;2.40;;;;;;;;;;5097371;27;20884;-62
2024/02/25 05:02:49;;;;;;;6.20;2.97;;;;;;;;;;5104280;27;20023;-63
2024/02/25 05:05:18;;;;;;;3.50;2.42;;;;;;;;;;5100148;27;20024;-63
2024/02/25 05:07:44;;;;;;;2.13;2.00;;;;;;;;;;5107452;28;20036;-62
2024/02/25 05:10:13;;;;;;;2.90;2.10;;;;;;;;;;5084171;28;21028;-62
2024/02/25 05:12:39;;;;;;;3.65;2.53;;;;;;;;;;5086983;28;20034;-63
2024/02/25 05:15:06;;;;;;;3.17;2.42;;;;;;;;;;5101014;27;20031;-62
2024/02/25 05:17:32;;;;;;;3.33;2.35;;;;;;;;;;5094866;27;20676;-61
2024/02/25 05:19:58;;;;;;;2.63;2.40;;;;;;;;;;5098819;27;20038;-62
2024/02/25 05:22:24;;;;;;;2.58;2.30;;;;;;;;;;5094590;27;20059;-61
2024/02/25 05:24:50;;;;;;;2.95;2.35;;;;;;;;;;5095794;28;20124;-62
2024/02/25 05:27:18;;;;;;;2.42;2.20;;;;;;;;;;5106681;27;20430;-62
2024/02/25 05:29:45;;;;;;;7.35;2.85;;;;;;;;;;5105284;27;20031;-63
2024/02/25 05:32:11;;;;;;;2.53;2.33;;;;;;;;;;5092806;28;20032;-62
2024/02/25 05:34:37;;;;;;;7.35;2.20;;;;;;;;;;5097635;27;20023;-62
2024/02/25 05:37:03;;;;;;;3.70;2.63;;;;;;;;;;5080343;28;20497;-61
2024/02/25 05:39:30;;;;;;;4.63;2.40;;;;;;;;;;5073786;28;20412;-62
2024/02/25 05:41:56;;;;;;;5.15;2.67;;;;;;;;;;5078999;28;20039;-62
2024/02/25 05:44:22;;;;;;;3.92;2.70;;;;;;;;;;5078836;28;20024;-64
2024/02/25 05:46:48;;;;;;;4.80;2.80;;;;;;;;;;5085627;28;20031;-62
2024/02/25 05:49:14;;;;;;;2.92;2.63;;;;;;;;;;5079997;28;20086;-62
2024/02/25 05:51:41;;;;;;;2.35;2.15;;;;;;;;;;5076221;28;20032;-62
2024/02/25 05:54:07;;;;;;;2.50;2.15;;;;;;;;;;5073834;28;20481;-61
2024/02/25 05:56:33;;;;;;;4.40;2.90;;;;;;;;;;5086477;28;20039;-62
2024/02/25 05:58:59;;;;;;;5.15;2.50;;;;;;;;;;5083984;28;20058;-62
2024/02/25 06:01:26;;;;;;;2.53;2.33;;;;;;;;;;5077557;28;20488;-63
2024/02/25 06:03:52;;;;;;;7.07;2.92;;;;;;;;;;5082271;28;20511;-62
2024/02/25 06:06:19;;;;;;;6.60;2.22;;;;;;;;;;5083998;28;20319;-62
2024/02/25 06:08:45;;;;;;;4.05;2.60;;;;;;;;;;5085365;28;20025;-63
2024/02/25 06:11:11;;;;;;;3.10;2.10;;;;;;;;;;5080131;28;20105;-63
2024/02/25 06:13:37;;;;;;;5.05;2.22;;;;;;;;;;5081838;28;20028;-63
2024/02/25 06:16:03;;;;;;;8.80;2.75;;;;;;;;;;5078322;28;20028;-62
2024/02/25 06:18:29;;;;;;;4.25;3.08;;;;;;;;;;5084581;28;20032;-63
2024/02/25 06:20:56;;;;;;;6.28;2.30;;;;;;;;;;5078551;28;20035;-62
2024/02/25 06:23:22;;;;;;;3.28;2.97;;;;;;;;;;5078323;28;20051;-63
2024/02/25 06:25:48;;;;;;;2.83;2.15;;;;;;;;;;5083606;28;20488;-62
2024/02/25 06:28:14;;;;;;;9.68;2.67;;;;;;;;;;5086126;28;20036;-62
2024/02/25 06:30:40;;;;;;;3.83;2.35;;;;;;;;;;5078096;28;20024;-62
2024/02/25 06:33:06;;;;;;;3.80;2.30;;;;;;;;;;5074299;28;20380;-62
2024/02/25 06:35:33;;;;;;;5.57;2.22;;;;;;;;;;5084197;28;20028;-67
2024/02/25 06:38:00;;;;;;;2.38;1.98;;;;;;;;;;5098986;28;20115;-65
2024/02/25 06:40:27;;;;;;;3.45;2.55;;;;;;;;;;5079017;28;20437;-66
2024/02/25 06:42:53;;;;;;;3.08;2.65;;;;;;;;;;5099674;28;20068;-62
2024/02/25 06:45:19;;;;;;;2.45;2.25;;;;;;;;;;5098680;28;20028;-62
2024/02/25 06:47:48;;;;;;;9.77;2.50;;;;;;;;;;5107940;28;20024;-62
2024/02/25 06:50:14;;;;;;;4.43;2.00;;;;;;;;;;5089821;28;20036;-63
2024/02/25 06:52:40;;;;;;;7.20;2.10;;;;;;;;;;5083076;28;20172;-62
2024/02/25 06:55:09;;;;;;;6.22;2.40;;;;;;;;;;5091624;28;20031;-63
2024/02/25 06:57:35;;;;;;;3.60;2.15;;;;;;;;;;5099908;28;20036;-62
2024/02/25 07:00:05;;;;;;;1.63;1.52;;;;;;;;;;5102988;28;20027;-64
2024/02/25 07:02:32;;;;;;;5.03;2.20;;;;;;;;;;5096536;28;20020;-63
2024/02/25 07:04:58;;;;;;;8.18;2.15;;;;;;;;;;5089655;28;20380;-62
2024/02/25 07:07:24;;;;;;;1.75;1.65;;;;;;;;;;5103427;28;20080;-63
2024/02/25 07:09:51;;;;;;;2.67;1.75;;;;;;;;;;5095156;28;20054;-63
2024/02/25 07:12:18;;;;;;;1.85;1.75;;;;;;;;;;5098696;28;20112;-63
2024/02/25 07:14:44;;;;;;;3.05;1.67;;;;;;;;;;5103813;28;20491;-63
2024/02/25 07:17:10;;;;;;;5.13;3.15;;;;;;;;;;5104008;28;20459;-64
2024/02/25 07:19:36;;;;;;;1.75;1.65;;;;;;;;;;5080555;28;20024;-66
2024/02/25 07:22:02;;;;;;;1.50;1.40;;;;;;;;;;5092277;28;20031;-63
2024/02/25 07:24:28;;;;;;;2.10;2.00;;;;;;;;;;5080285;28;20087;-62
2024/02/25 07:26:55;;;;;;;1.77;1.67;;;;;;;;;;5107371;27;20035;-62
2024/02/25 07:29:21;;;;;;;1.73;1.63;;;;;;;;;;5103350;28;20024;-63
2024/02/25 07:31:50;;;;;;;1.85;1.70;;;;;;;;;;5100084;27;20036;-63
2024/02/25 07:34:16;;;;;;;1.60;1.50;;;;;;;;;;5088995;28;20475;-62
2024/02/25 07:36:43;;;;;;;2.10;1.60;;;;;;;;;;5103301;27;20075;-66
2024/02/25 07:39:10;;;;;;;1.50;1.50;;;;;;;;;;5087438;28;20032;-62
2024/02/25 07:41:36;;;;;;;2.03;1.80;;;;;;;;;;5106852;27;20032;-62
2024/02/25 07:44:02;;;;;;;6.40;1.70;;;;;;;;;;5103745;28;20429;-63
2024/02/25 07:46:29;;;;;;;1.98;1.80;;;;;;;;;;5101441;27;20484;-63
2024/02/25 07:48:55;;;;;;;1.92;1.83;;;;;;;;;;5104138;27;20383;-62
2024/02/25 07:51:22;;;;;;;2.08;1.92;;;;;;;;;;5101089;27;20023;-62
2024/02/25 07:53:49;;;;;;;2.55;2.15;;;;;;;;;;5097547;27;20043;-63
2024/02/25 07:56:19;;;;;;;3.72;1.67;;;;;;;;;;5098798;27;20024;-62
2024/02/25 07:58:45;;;;;;;2.97;1.85;;;;;;;;;;5083242;28;20020;-62
2024/02/25 08:01:12;;;;;;;1.70;1.60;;;;;;;;;;5101755;27;20024;-63
2024/02/25 08:03:38;;;;;;;1.65;1.55;;;;;;;;;;5099090;28;20029;-65
2024/02/25 08:06:04;;;;;;;2.28;1.58;;;;;;;;;;5099818;27;20036;-62
2024/02/25 08:08:30;;;;;;;1.30;1.30;;;;;;;;;;5100924;28;20027;-62
2024/02/25 08:10:57;;;;;;;1.52;1.42;;;;;;;;;;5083956;27;20679;-63
2024/02/25 08:13:23;;;;;;;2.08;1.50;;;;;;;;;;5110784;27;20020;-64
2024/02/25 08:15:49;;;;;;;1.55;1.50;;;;;;;;;;5104094;28;20031;-62
2024/02/25 08:18:15;;;;;;;2.25;1.60;;;;;;;;;;5103247;28;20028;-62
2024/02/25 08:20:41;;;;;;;10.82;2.10;;;;;;;;;;5100656;27;20488;-63
2024/02/25 08:23:08;;;;;;;5.00;2.05;;;;;;;;;;5090246;28;20062;-63
2024/02/25 08:25:34;;;;;;;1.80;1.70;;;;;;;;;;5100740;27;20031;-62
2024/02/25 08:28:00;;;;;;;1.75;1.65;;;;;;;;;;5103198;27;20031;-62
2024/02/25 08:30:26;;;;;;;1.38;1.30;;;;;;;;;;5101634;27;20061;-62
2024/02/25 08:32:54;;;;;;;1.60;1.50;;;;;;;;;;5116979;27;20047;-62
2024/02/25 08:35:20;;;;;;;3.53;1.88;;;;;;;;;;5098404;27;20507;-63
2024/02/25 08:37:47;;;;;;;1.45;1.45;;;;;;;;;;5097378;27;20041;-63
2024/02/25 08:40:13;;;;;;;2.25;2.05;;;;;;;;;;5099014;27;20043;-63
2024/02/25 08:42:40;;;;;;;2.00;1.85;;;;;;;;;;5094428;27;20504;-65
2024/02/25 08:45:06;;;;;;;3.30;2.50;;;;;;;;;;5101075;27;20027;-63
2024/02/25 08:47:32;;;;;;;1.55;1.50;;;;;;;;;;5102888;28;20055;-63
2024/02/25 08:49:59;;;;;;;3.15;2.85;;;;;;;;;;5099490;27;20072;-64
2024/02/25 08:52:26;;;;;;;1.60;1.50;;;;;;;;;;5104661;28;20476;-63
2024/02/25 08:54:52;;;;;;;1.45;1.40;;;;;;;;;;5101405;28;20027;-63
2024/02/25 08:57:18;;;;;;;4.30;1.85;;;;;;;;;;5103874;28;20388;-62
2024/02/25 08:59:45;;;;;;;2.28;1.95;;;;;;;;;;5106787;27;20441;-63
2024/02/25 09:02:12;;;;;;;7.65;2.10;;;;;;;;;;5106219;27;20321;-63
2024/02/25 09:04:39;;;;;;;11.23;3.30;;;;;;;;;;5105594;27;20032;-62
2024/02/25 09:07:05;;;;;;;3.45;1.98;;;;;;;;;;5099744;27;20028;-62
2024/02/25 09:09:31;;;;;;;2.33;2.08;;;;;;;;;;5108184;27;20602;-62
2024/02/25 09:12:01;;;;;;;8.57;2.05;;;;;;;;;;5103602;28;20583;-64
2024/02/25 09:14:33;;;;;;;2.78;1.80;;;;;;;;;;5105723;27;20016;-62
2024/02/25 09:16:59;;;;;;;4.45;2.53;;;;;;;;;;5089965;28;20089;-63
2024/02/25 09:19:26;;;;;;;2.40;2.15;;;;;;;;;;5107826;27;20024;-63
2024/02/25 09:21:52;;;;;;;2.20;1.90;;;;;;;;;;5102082;27;20085;-63
2024/02/25 09:24:18;;;;;;;8.43;2.40;;;;;;;;;;5105118;27;20084;-63
2024/02/25 09:26:46;;;;;;;11.85;2.00;;;;;;;;;;5098126;28;20452;-63
2024/02/25 09:29:13;;;;;;;4.40;2.40;;;;;;;;;;5103136;27;20055;-64
2024/02/25 09:31:40;;;;;;;3.00;2.38;;;;;;;;;;5091504;27;20020;-63
2024/02/25 09:34:08;;;;;;;5.78;2.33;;;;;;;;;;5108072;28;20049;-62
2024/02/25 09:36:34;;;;;;;2.58;2.30;;;;;;;;;;5108837;27;20523;-63
2024/02/25 09:39:03;;;;;;;1.88;1.77;;;;;;;;;;5104285;27;20459;-67
2024/02/25 09:41:30;;;;;;;2.40;1.88;;;;;;;;;;5110854;28;20488;-65
2024/02/25 09:43:57;;;;;;;3.65;3.25;;;;;;;;;;5107632;28;20035;-65
2024/02/25 09:46:43;;;;;;;2.72;1.75;;;;;;;;;;5089169;28;20034;-65
2024/02/25 09:49:09;;;;;;;1.70;1.60;;;;;;;;;;5087029;28;20023;-65
2024/02/25 09:51:36;;;;;;;5.15;2.50;;;;;;;;;;5101411;27;20034;-64
2024/02/25 09:54:02;;;;;;;2.22;2.03;;;;;;;;;;5105118;27;20026;-64
2024/02/25 09:56:30;;;;;;;2.15;1.92;;;;;;;;;;5102679;27;20047;-63
2024/02/25 09:58:56;;;;;;;2.92;1.98;;;;;;;;;;5102528;28;20027;-64
2024/02/25 10:01:22;;;;;;;3.20;1.83;;;;;;;;;;5102038;27;20023;-63
2024/02/25 10:03:48;;;;;;;8.18;2.13;;;;;;;;;;5102851;28;20020;-64
2024/02/25 10:06:14;;;;;;;5.15;2.20;;;;;;;;;;5100808;28;20472;-64
2024/02/25 10:08:47;;;;;;;4.18;2.05;;;;;;;;;;5101801;28;20047;-66
2024/02/25 10:11:14;;;;;;;1.60;1.50;;;;;;;;;;5100741;28;20023;-64
2024/02/25 10:13:45;;;;;;;4.68;1.70;;;;;;;;;;5100627;27;20498;-65
2024/02/25 10:16:16;;;;;;;9.65;2.28;;;;;;;;;;5096284;28;20108;-64
2024/02/25 10:18:43;;;;;;;1.70;1.60;;;;;;;;;;5098992;28;20396;-64
2024/02/25 10:21:09;;;;;;;6.30;2.17;;;;;;;;;;5099828;28;20023;-65
2024/02/25 10:23:35;;;;;;;2.03;1.80;;;;;;;;;;5103021;28;20027;-65
2024/02/25 10:26:32;;;;;;;5.78;2.00;;;;;;;;;;5101002;28;20062;-64
2024/02/25 10:29:03;;;;;;;4.53;1.90;;;;;;;;;;5064489;28;20785;-65
2024/02/25 10:31:29;;;;;;;1.98;1.70;;;;;;;;;;5105579;28;20152;-64
2024/02/25 10:33:59;;;;;;;3.35;1.42;;;;;;;;;;5092387;28;20063;-64
2024/02/25 10:36:29;;;;;;;4.13;1.70;;;;;;;;;;5100271;28;20047;-64
2024/02/25 10:38:56;;;;;;;10.48;1.85;;;;;;;;;;5099748;28;20047;-64
2024/02/25 10:41:23;;;;;;;1.60;1.40;;;;;;;;;;5096115;28;20032;-64
2024/02/25 10:43:52;;;;;;;2.92;1.88;;;;;;;;;;5093412;28;20039;-64
2024/02/25 10:46:18;;;;;;;2.67;1.60;;;;;;;;;;5097279;28;20036;-64
2024/02/25 10:48:45;;;;;;;4.25;1.63;;;;;;;;;;5100427;28;20118;-64
2024/02/25 10:51:11;;;;;;;8.52;1.90;;;;;;;;;;5101205;28;20032;-64
2024/02/25 10:53:41;;;;;;;2.63;1.55;;;;;;;;;;5095462;28;20081;-64
2024/02/25 10:56:11;;;;;;;2.17;1.50;;;;;;;;;;5094050;28;20038;-64
2024/02/25 10:58:37;;;;;;;2.67;1.67;;;;;;;;;;5103206;28;20134;-64
2024/02/25 11:01:04;;;;;;;3.00;1.95;;;;;;;;;;5100301;28;20119;-63
2024/02/25 11:03:31;;;;;;;7.50;1.90;;;;;;;;;;5103306;28;20081;-63
2024/02/25 11:05:57;;;;;;;1.75;1.40;;;;;;;;;;5093521;27;20035;-64
2024/02/25 11:08:34;;;;;;;2.17;1.65;;;;;;;;;;5094439;28;20031;-64
2024/02/25 11:11:00;;;;;;;2.47;1.92;;;;;;;;;;5104107;28;20659;-64
2024/02/25 11:13:27;;;;;;;2.97;2.28;;;;;;;;;;5102775;28;20095;-66
2024/02/25 11:15:56;;;;;;;2.38;2.17;;;;;;;;;;5113824;28;20024;-63
2024/02/25 11:18:26;;;;;;;4.65;2.65;;;;;;;;;;5103166;28;20553;-64
2024/02/25 11:21:08;;;;;;;2.08;1.50;;;;;;;;;;5102804;28;20087;-64
2024/02/25 11:23:45;;;;;;;3.45;2.30;;;;;;;;;;5094153;28;20035;-63
2024/02/25 11:26:29;;;;;;;5.88;2.75;;;;;;;;;;5086082;28;20115;-63
2024/02/25 11:29:14;;;;;;;1.70;1.60;;;;;;;;;;5102953;28;20043;-64
2024/02/25 11:32:00;;;;;;;2.20;2.00;;;;;;;;;;5081505;28;20273;-64
2024/02/25 11:34:34;;;;;;;2.22;2.03;;;;;;;;;;5083607;28;20046;-63
2024/02/25 11:37:01;;;;;;;5.15;2.30;;;;;;;;;;5100898;28;20040;-64
2024/02/25 11:39:31;;;;;;;3.38;3.05;;;;;;;;;;5102013;28;20024;-63
2024/02/25 11:41:58;;;;;;;8.20;2.35;;;;;;;;;;5073285;28;20404;-64
2024/02/25 11:44:25;;;;;;;2.05;1.95;;;;;;;;;;5103748;28;20079;-64
2024/02/25 11:46:59;;;;;;;3.83;1.92;;;;;;;;;;5107440;28;20464;-64
2024/02/25 11:49:25;;;;;;;2.03;1.83;;;;;;;;;;5093996;28;20043;-64
2024/02/25 11:51:52;;;;;;;4.63;2.90;;;;;;;;;;5086990;28;20081;-64
2024/02/25 11:54:22;;;;;;;5.03;2.20;;;;;;;;;;5078186;28;20036;-63
2024/02/25 11:56:51;;;;;;;5.80;2.15;;;;;;;;;;5103644;28;20039;-63
2024/02/25 11:59:20;;;;;;;5.88;2.42;;;;;;;;;;5104085;28;20488;-63
2024/02/25 12:01:47;;;;;;;2.75;2.08;;;;;;;;;;5090488;28;20051;-63
2024/02/25 12:04:14;;;;;;;1.58;1.50;;;;;;;;;;5098283;28;20103;-63
2024/02/25 12:06:40;;;;;;;4.78;2.13;;;;;;;;;;5087839;28;20570;-65
2024/02/25 12:09:07;;;;;;;2.47;2.25;;;;;;;;;;5095381;28;20020;-64
2024/02/25 12:11:36;;;;;;;6.78;2.13;;;;;;;;;;5095566;28;20022;-67
2024/02/25 12:14:03;;;;;;;6.50;2.40;;;;;;;;;;5092285;28;20384;-63
2024/02/25 12:16:30;;;;;;;11.60;2.30;;;;;;;;;;5104972;28;20753;-64
2024/02/25 12:18:57;;;;;;;2.40;1.83;;;;;;;;;;5101178;28;20020;-63
2024/02/25 12:21:23;;;;;;;5.75;2.00;;;;;;;;;;5083291;28;20091;-65
2024/02/25 12:23:50;;;;;;;1.98;1.85;;;;;;;;;;5104075;28;20043;-63
2024/02/25 12:26:16;;;;;;;2.60;2.22;;;;;;;;;;5102992;28;20100;-64
2024/02/25 12:28:42;;;;;;;6.70;2.78;;;;;;;;;;5095281;28;20036;-63
2024/02/25 12:31:11;;;;;;;3.75;2.20;;;;;;;;;;5080765;28;20035;-64
2024/02/25 12:33:37;;;;;;;3.10;2.28;;;;;;;;;;5097367;28;20038;-64
2024/02/25 12:36:04;;;;;;;1.95;1.83;;;;;;;;;;5081510;28;20068;-63
2024/02/25 12:38:34;;;;;;;3.28;2.50;;;;;;;;;;5084511;28;20366;-68
2024/02/25 12:41:03;;;;;;;9.77;2.50;;;;;;;;;;5082071;28;20021;-65
2024/02/25 12:43:29;;;;;;;7.03;2.60;;;;;;;;;;5076788;28;20020;-65
2024/02/25 12:45:56;;;;;;;3.25;2.35;;;;;;;;;;5085775;28;20107;-64
2024/02/25 12:48:22;;;;;;;3.03;1.90;;;;;;;;;;5079781;28;20086;-64
2024/02/25 12:50:48;;;;;;;2.85;2.30;;;;;;;;;;5084230;28;20032;-64
2024/02/25 12:53:14;;;;;;;3.65;2.78;;;;;;;;;;5087095;28;20519;-64
2024/02/25 12:55:41;;;;;;;2.15;2.03;;;;;;;;;;5077719;28;20024;-65
2024/02/25 12:58:07;;;;;;;3.67;2.40;;;;;;;;;;5085503;28;20036;-63
2024/02/25 13:00:34;;;;;;;3.50;2.33;;;;;;;;;;5084344;28;20737;-64
2024/02/25 13:03:00;;;;;;;2.95;2.20;;;;;;;;;;5071064;28;20078;-64
2024/02/25 13:05:26;;;;;;;7.03;3.70;;;;;;;;;;5089493;28;20504;-64
2024/02/25 13:07:53;;;;;;;5.97;4.30;;;;;;;;;;5079918;28;20107;-66
2024/02/25 13:10:20;;;;;;;6.72;3.30;;;;;;;;;;5076581;28;20113;-64
2024/02/25 13:12:47;;;;;;;3.33;2.50;;;;;;;;;;5077417;28;20020;-64
2024/02/25 13:15:13;;;;;;;3.78;2.38;;;;;;;;;;5072679;28;20103;-64
2024/02/25 13:17:39;;;;;;;2.53;2.10;;;;;;;;;;5073028;28;20020;-64
2024/02/25 13:20:14;;;;;;;4.68;2.35;;;;;;;;;;5086407;28;20104;-65
2024/02/25 13:22:41;;;;;;;4.93;2.72;;;;;;;;;;5081346;28;20502;-64
2024/02/25 13:25:07;;;;;;;6.15;2.83;;;;;;;;;;5077953;28;20381;-64
2024/02/25 13:27:33;;;;;;;3.10;2.20;;;;;;;;;;5083517;28;20024;-64
2024/02/25 13:30:00;;;;;;;3.45;2.55;;;;;;;;;;5078512;28;20445;-63
2024/02/25 13:32:28;;;;;;;2.47;2.20;;;;;;;;;;5082457;28;20024;-64
2024/02/25 13:34:55;;;;;;;4.75;3.33;;;;;;;;;;5077854;28;20024;-65
2024/02/25 13:37:21;;;;;;;3.30;2.40;;;;;;;;;;5090682;28;20132;-64
2024/02/25 13:39:48;;;;;;;6.68;3.03;;;;;;;;;;5099331;28;20044;-68
2024/02/25 13:42:14;;;;;;;4.18;2.28;;;;;;;;;;5092247;28;20035;-63
2024/02/25 13:44:40;;;;;;;12.70;3.03;;;;;;;;;;5106671;28;20479;-64
2024/02/25 13:47:08;;;;;;;5.65;3.00;;;;;;;;;;5093574;28;20070;-64
2024/02/25 13:49:34;;;;;;;6.97;3.45;;;;;;;;;;5100177;28;20032;-63
2024/02/25 13:52:00;;;;;;;4.90;3.25;;;;;;;;;;5104143;28;20023;-63
2024/02/25 13:54:30;;;;;;;6.25;3.22;;;;;;;;;;5108213;28;20022;-66
2024/02/25 13:56:58;;;;;;;3.65;3.35;;;;;;;;;;5107471;28;20739;-65
2024/02/25 13:59:24;;;;;;;5.05;3.15;;;;;;;;;;5089348;28;20024;-63
2024/02/25 14:01:51;;;;;;;9.05;3.92;;;;;;;;;;5093018;28;20030;-64
2024/02/25 14:04:20;;;;;;;6.93;4.03;;;;;;;;;;5105287;28;20480;-65
2024/02/25 14:06:46;;;;;;;4.65;3.08;;;;;;;;;;5096589;28;20115;-64
2024/02/25 14:09:13;;;;;;;5.15;2.75;;;;;;;;;;5083598;28;20019;-64
2024/02/25 14:11:40;;;;;;;3.88;3.10;;;;;;;;;;5092052;28;20062;-65
2024/02/25 14:14:06;;;;;;;8.95;3.08;;;;;;;;;;5103241;28;20027;-63
2024/02/25 14:16:37;;;;;;;2.95;2.47;;;;;;;;;;5096351;28;20054;-63
2024/02/25 14:19:04;;;;;;;7.53;2.67;;;;;;;;;;5101574;28;20027;-63
2024/02/25 14:21:35;;;;;;;5.07;2.50;;;;;;;;;;5099458;28;20107;-65
2024/02/25 14:24:01;;;;;;;2.53;2.33;;;;;;;;;;5094844;28;20039;-63
2024/02/25 14:26:27;;;;;;;3.47;2.33;;;;;;;;;;5104326;28;20545;-63
2024/02/25 14:28:54;;;;;;;4.75;2.33;;;;;;;;;;5098381;28;20024;-63
2024/02/25 14:31:20;;;;;;;6.43;3.25;;;;;;;;;;5102007;28;20051;-62
2024/02/25 14:33:48;;;;;;;4.75;3.28;;;;;;;;;;5102601;28;20034;-62
2024/02/25 14:36:14;;;;;;;4.78;2.47;;;;;;;;;;5080350;28;20040;-62
2024/02/25 14:38:42;;;;;;;2.38;2.17;;;;;;;;;;5088547;28;20115;-68
2024/02/25 14:41:08;;;;;;;4.03;2.45;;;;;;;;;;5100277;28;20521;-64